sensor_id;sensor_type;location;lat;lon;timestamp;pressure;altitude;pressure_sealevel;temperature;humidity
28701;BME280;15877;52.344;16.790;2023-06-22T00:00:31;100890.24;;;24.64;68.72
28701;BME280;15877;52.344;16.790;2023-06-22T00:03:25;100907.16;;;24.68;69.12
28701;BME280;15877;52.344;16.790;2023-06-22T00:05:57;100909.27;;;24.65;69.22
28701;BME280;15877;52.344;16.790;2023-06-22T00:08:29;100914.63;;;24.62;69.48
28701;BME280;15877;52.344;16.790;2023-06-22T00:11:02;100914.75;;;24.60;69.96
28701;BME280;15877;52.344;16.790;2023-06-22T00:13:34;100916.85;;;24.58;69.44
28701;BME280;15877;52.344;16.790;2023-06-22T00:16:07;100920.24;;;24.55;69.52
28701;BME280;15877;52.344;16.790;2023-06-22T00:18:39;100931.02;;;24.53;69.74
28701;BME280;15877;52.344;16.790;2023-06-22T00:21:18;100935.02;;;24.49;71.52
28701;BME280;15877;52.344;16.790;2023-06-22T00:23:51;100935.48;;;24.44;72.62
28701;BME280;15877;52.344;16.790;2023-06-22T00:26:23;100940.38;;;24.43;72.52
28701;BME280;15877;52.344;16.790;2023-06-22T00:28:55;100942.17;;;24.42;72.29
28701;BME280;15877;52.344;16.790;2023-06-22T00:31:28;100941.39;;;24.41;72.39
28701;BME280;15877;52.344;16.790;2023-06-22T00:34:00;100940.41;;;24.42;72.24
28701;BME280;15877;52.344;16.790;2023-06-22T00:36:33;100940.98;;;24.41;71.97
28701;BME280;15877;52.344;16.790;2023-06-22T00:39:06;100935.88;;;24.39;72.67
28701;BME280;15877;52.344;16.790;2023-06-22T00:41:39;100918.92;;;24.26;72.45
28701;BME280;15877;52.344;16.790;2023-06-22T00:44:11;100939.77;;;24.39;72.06
28701;BME280;15877;52.344;16.790;2023-06-22T00:46:44;100940.02;;;24.38;71.63
28701;BME280;15877;52.344;16.790;2023-06-22T00:49:16;100942.67;;;24.36;71.27
28701;BME280;15877;52.344;16.790;2023-06-22T00:51:48;100951.16;;;24.34;70.32
28701;BME280;15877;52.344;16.790;2023-06-22T00:54:21;100951.92;;;24.30;69.99
28701;BME280;15877;52.344;16.790;2023-06-22T00:56:57;100950.85;;;24.28;70.17
28701;BME280;15877;52.344;16.790;2023-06-22T00:59:30;100955.04;;;24.26;70.66
28701;BME280;15877;52.344;16.790;2023-06-22T01:02:03;100957.30;;;24.23;71.69
28701;BME280;15877;52.344;16.790;2023-06-22T01:04:38;100957.55;;;24.19;71.85
28701;BME280;15877;52.344;16.790;2023-06-22T01:07:16;100954.13;;;24.17;72.17
28701;BME280;15877;52.344;16.790;2023-06-22T01:09:59;100951.58;;;24.15;71.58
28701;BME280;15877;52.344;16.790;2023-06-22T01:12:38;100951.73;;;24.13;71.36
28701;BME280;15877;52.344;16.790;2023-06-22T01:15:18;100958.67;;;24.11;71.58
28701;BME280;15877;52.344;16.790;2023-06-22T01:17:53;100955.41;;;24.07;72.01
28701;BME280;15877;52.344;16.790;2023-06-22T01:20:29;100948.39;;;24.05;72.37
28701;BME280;15877;52.344;16.790;2023-06-22T01:23:05;100949.92;;;24.03;72.42
28701;BME280;15877;52.344;16.790;2023-06-22T01:25:45;100947.08;;;24.01;72.60
28701;BME280;15877;52.344;16.790;2023-06-22T01:30:58;100951.94;;;23.96;72.19
28701;BME280;15877;52.344;16.790;2023-06-22T01:33:39;100952.45;;;23.95;72.63
28701;BME280;15877;52.344;16.790;2023-06-22T01:36:14;100958.02;;;23.93;72.68
28701;BME280;15877;52.344;16.790;2023-06-22T01:38:50;100966.58;;;23.91;72.87
28701;BME280;15877;52.344;16.790;2023-06-22T01:41:26;100969.87;;;23.89;73.24
28701;BME280;15877;52.344;16.790;2023-06-22T01:44:00;100979.55;;;23.88;73.96
28701;BME280;15877;52.344;16.790;2023-06-22T01:46:33;100980.20;;;23.84;74.55
28701;BME280;15877;52.344;16.790;2023-06-22T01:49:07;100981.49;;;23.84;74.66
28701;BME280;15877;52.344;16.790;2023-06-22T01:51:39;100986.79;;;23.86;74.57
28701;BME280;15877;52.344;16.790;2023-06-22T01:54:11;100982.40;;;23.87;74.82
28701;BME280;15877;52.344;16.790;2023-06-22T01:56:44;100985.77;;;23.82;75.46
28701;BME280;15877;52.344;16.790;2023-06-22T01:59:20;100980.60;;;23.81;75.49
28701;BME280;15877;52.344;16.790;2023-06-22T02:01:57;100970.21;;;23.74;75.48
28701;BME280;15877;52.344;16.790;2023-06-22T02:04:37;100983.90;;;23.82;75.79
28701;BME280;15877;52.344;16.790;2023-06-22T02:07:18;100984.69;;;23.80;76.21
28701;BME280;15877;52.344;16.790;2023-06-22T02:09:54;100984.96;;;23.78;75.95
28701;BME280;15877;52.344;16.790;2023-06-22T02:12:29;100991.30;;;23.77;74.17
28701;BME280;15877;52.344;16.790;2023-06-22T02:15:04;100992.75;;;23.75;72.61
28701;BME280;15877;52.344;16.790;2023-06-22T02:17:37;100991.02;;;23.72;72.08
28701;BME280;15877;52.344;16.790;2023-06-22T02:20:13;100986.26;;;23.61;71.26
28701;BME280;15877;52.344;16.790;2023-06-22T02:22:46;100993.16;;;23.57;70.79
28701;BME280;15877;52.344;16.790;2023-06-22T02:25:18;101008.50;;;23.59;70.33
28701;BME280;15877;52.344;16.790;2023-06-22T02:27:51;101011.05;;;23.55;70.07
28701;BME280;15877;52.344;16.790;2023-06-22T02:30:24;101008.59;;;23.44;70.02
28701;BME280;15877;52.344;16.790;2023-06-22T02:32:57;101020.22;;;23.46;70.01
28701;BME280;15877;52.344;16.790;2023-06-22T02:35:31;101021.20;;;23.42;69.93
28701;BME280;15877;52.344;16.790;2023-06-22T02:38:07;101020.16;;;23.37;69.85
28701;BME280;15877;52.344;16.790;2023-06-22T02:40:39;101014.96;;;23.35;69.81
28701;BME280;15877;52.344;16.790;2023-06-22T02:43:11;101026.92;;;23.32;69.78
28701;BME280;15877;52.344;16.790;2023-06-22T02:45:44;101027.70;;;23.30;69.59
28701;BME280;15877;52.344;16.790;2023-06-22T02:48:16;101022.40;;;23.26;69.56
28701;BME280;15877;52.344;16.790;2023-06-22T02:50:48;101022.46;;;23.23;69.56
28701;BME280;15877;52.344;16.790;2023-06-22T02:53:20;101024.73;;;23.19;69.90
28701;BME280;15877;52.344;16.790;2023-06-22T02:55:53;101025.83;;;23.17;69.83
28701;BME280;15877;52.344;16.790;2023-06-22T02:58:26;101026.11;;;23.15;69.63
28701;BME280;15877;52.344;16.790;2023-06-22T03:00:59;101023.55;;;23.13;69.64
28701;BME280;15877;52.344;16.790;2023-06-22T03:03:36;101022.40;;;23.10;69.60
28701;BME280;15877;52.344;16.790;2023-06-22T03:06:09;101024.02;;;23.07;69.63
28701;BME280;15877;52.344;16.790;2023-06-22T03:08:46;101026.23;;;23.05;69.59
28701;BME280;15877;52.344;16.790;2023-06-22T03:11:18;101029.94;;;23.02;69.58
28701;BME280;15877;52.344;16.790;2023-06-22T03:13:51;101028.77;;;23.00;69.64
28701;BME280;15877;52.344;16.790;2023-06-22T03:16:24;101030.41;;;22.98;69.86
28701;BME280;15877;52.344;16.790;2023-06-22T03:18:57;101031.91;;;22.95;70.02
28701;BME280;15877;52.344;16.790;2023-06-22T03:21:30;101032.20;;;22.93;70.05
28701;BME280;15877;52.344;16.790;2023-06-22T03:24:04;101030.59;;;22.93;70.12
28701;BME280;15877;52.344;16.790;2023-06-22T03:26:36;101032.20;;;22.93;70.23
28701;BME280;15877;52.344;16.790;2023-06-22T03:29:09;101033.34;;;22.93;70.30
28701;BME280;15877;52.344;16.790;2023-06-22T03:31:41;101040.48;;;22.91;70.57
28701;BME280;15877;52.344;16.790;2023-06-22T03:34:14;101040.73;;;22.91;70.63
28701;BME280;15877;52.344;16.790;2023-06-22T03:36:47;101039.02;;;22.92;70.56
28701;BME280;15877;52.344;16.790;2023-06-22T03:39:20;101041.16;;;22.91;70.61
28701;BME280;15877;52.344;16.790;2023-06-22T03:41:53;101036.86;;;22.91;70.62
28701;BME280;15877;52.344;16.790;2023-06-22T03:44:27;101040.66;;;22.91;70.88
28701;BME280;15877;52.344;16.790;2023-06-22T03:47:00;101043.47;;;22.92;71.05
28701;BME280;15877;52.344;16.790;2023-06-22T03:49:33;101036.60;;;22.92;71.04
28701;BME280;15877;52.344;16.790;2023-06-22T03:52:07;101040.71;;;22.92;71.26
28701;BME280;15877;52.344;16.790;2023-06-22T03:54:39;101042.59;;;22.92;71.43
28701;BME280;15877;52.344;16.790;2023-06-22T03:57:11;101043.36;;;22.90;71.90
28701;BME280;15877;52.344;16.790;2023-06-22T03:59:43;101047.86;;;22.91;72.26
28701;BME280;15877;52.344;16.790;2023-06-22T04:02:16;101050.52;;;22.92;72.10
28701;BME280;15877;52.344;16.790;2023-06-22T04:04:48;101063.55;;;22.92;72.70
28701;BME280;15877;52.344;16.790;2023-06-22T04:07:21;101063.70;;;22.93;73.41
28701;BME280;15877;52.344;16.790;2023-06-22T04:09:53;101067.63;;;22.95;74.27
28701;BME280;15877;52.344;16.790;2023-06-22T04:12:25;101067.44;;;22.97;74.29
28701;BME280;15877;52.344;16.790;2023-06-22T04:14:58;101076.98;;;23.02;74.16
28701;BME280;15877;52.344;16.790;2023-06-22T04:17:30;101077.81;;;23.05;74.10
28701;BME280;15877;52.344;16.790;2023-06-22T04:20:03;101082.05;;;23.08;74.27
28701;BME280;15877;52.344;16.790;2023-06-22T04:22:36;101076.62;;;23.12;74.03
28701;BME280;15877;52.344;16.790;2023-06-22T04:25:08;101075.77;;;23.14;74.10
28701;BME280;15877;52.344;16.790;2023-06-22T04:27:41;101080.05;;;23.15;74.01
28701;BME280;15877;52.344;16.790;2023-06-22T04:30:15;101085.10;;;23.18;73.97
28701;BME280;15877;52.344;16.790;2023-06-22T04:32:48;101084.89;;;23.16;74.12
28701;BME280;15877;52.344;16.790;2023-06-22T04:35:27;101087.38;;;23.21;73.99
28701;BME280;15877;52.344;16.790;2023-06-22T04:38:00;101081.30;;;23.17;74.03
28701;BME280;15877;52.344;16.790;2023-06-22T04:40:34;101090.52;;;23.27;73.43
28701;BME280;15877;52.344;16.790;2023-06-22T04:43:07;101088.35;;;23.25;73.61
28701;BME280;15877;52.344;16.790;2023-06-22T04:45:41;101091.15;;;23.28;73.11
28701;BME280;15877;52.344;16.790;2023-06-22T04:48:14;101091.07;;;23.33;72.40
28701;BME280;15877;52.344;16.790;2023-06-22T04:50:47;101085.06;;;23.33;72.12
28701;BME280;15877;52.344;16.790;2023-06-22T04:53:19;101086.89;;;23.35;72.06
28701;BME280;15877;52.344;16.790;2023-06-22T04:55:52;101090.80;;;23.34;72.06
28701;BME280;15877;52.344;16.790;2023-06-22T04:58:24;101086.26;;;23.35;71.79
28701;BME280;15877;52.344;16.790;2023-06-22T05:00:58;101086.26;;;23.38;72.16
28701;BME280;15877;52.344;16.790;2023-06-22T05:03:30;101085.51;;;23.40;71.45
28701;BME280;15877;52.344;16.790;2023-06-22T05:06:02;101086.27;;;23.45;70.70
28701;BME280;15877;52.344;16.790;2023-06-22T05:08:34;101089.17;;;23.46;70.09
28701;BME280;15877;52.344;16.790;2023-06-22T05:11:07;101087.93;;;23.44;69.65
28701;BME280;15877;52.344;16.790;2023-06-22T05:13:39;101089.37;;;23.49;69.44
28701;BME280;15877;52.344;16.790;2023-06-22T05:16:11;101090.45;;;23.50;69.70
28701;BME280;15877;52.344;16.790;2023-06-22T05:18:44;101094.75;;;23.55;69.21
28701;BME280;15877;52.344;16.790;2023-06-22T05:21:16;101092.55;;;23.59;69.12
28701;BME280;15877;52.344;16.790;2023-06-22T05:23:49;101088.46;;;23.61;69.17
28701;BME280;15877;52.344;16.790;2023-06-22T05:26:22;101085.25;;;23.63;68.79
28701;BME280;15877;52.344;16.790;2023-06-22T05:28:54;101084.02;;;23.64;68.70
28701;BME280;15877;52.344;16.790;2023-06-22T05:31:27;101087.85;;;23.67;68.74
28701;BME280;15877;52.344;16.790;2023-06-22T05:34:00;101079.63;;;23.72;68.18
28701;BME280;15877;52.344;16.790;2023-06-22T05:36:32;101075.05;;;23.77;67.44
28701;BME280;15877;52.344;16.790;2023-06-22T05:39:13;101082.66;;;23.78;67.06
28701;BME280;15877;52.344;16.790;2023-06-22T05:41:47;101088.05;;;23.76;67.12
28701;BME280;15877;52.344;16.790;2023-06-22T05:44:19;101087.42;;;23.82;66.55
28701;BME280;15877;52.344;16.790;2023-06-22T05:46:52;101085.16;;;23.85;66.09
28701;BME280;15877;52.344;16.790;2023-06-22T05:49:25;101088.33;;;23.90;66.26
28701;BME280;15877;52.344;16.790;2023-06-22T05:52:00;101089.52;;;23.91;66.03
28701;BME280;15877;52.344;16.790;2023-06-22T05:54:33;101090.94;;;23.92;66.35
28701;BME280;15877;52.344;16.790;2023-06-22T05:57:05;101090.83;;;23.93;66.02
28701;BME280;15877;52.344;16.790;2023-06-22T05:59:38;101092.61;;;23.98;66.00
28701;BME280;15877;52.344;16.790;2023-06-22T06:02:10;101095.34;;;23.99;65.44
28701;BME280;15877;52.344;16.790;2023-06-22T06:04:43;101099.48;;;24.03;65.00
28701;BME280;15877;52.344;16.790;2023-06-22T06:07:15;101091.63;;;24.14;64.84
28701;BME280;15877;52.344;16.790;2023-06-22T06:09:48;101086.77;;;24.20;64.93
28701;BME280;15877;52.344;16.790;2023-06-22T06:12:20;101083.77;;;24.23;64.67
28701;BME280;15877;52.344;16.790;2023-06-22T06:14:52;101087.96;;;24.25;63.74
28701;BME280;15877;52.344;16.790;2023-06-22T06:17:26;101094.67;;;24.29;63.96
28701;BME280;15877;52.344;16.790;2023-06-22T06:19:59;101098.92;;;24.31;63.78
28701;BME280;15877;52.344;16.790;2023-06-22T06:22:32;101095.13;;;24.34;63.75
28701;BME280;15877;52.344;16.790;2023-06-22T06:25:05;101091.00;;;24.43;63.76
28701;BME280;15877;52.344;16.790;2023-06-22T06:27:37;101095.93;;;24.47;63.06
28701;BME280;15877;52.344;16.790;2023-06-22T06:30:11;101096.77;;;24.49;62.78
28701;BME280;15877;52.344;16.790;2023-06-22T06:32:46;101094.77;;;24.51;62.88
28701;BME280;15877;52.344;16.790;2023-06-22T06:35:18;101094.07;;;24.53;62.94
28701;BME280;15877;52.344;16.790;2023-06-22T06:37:52;101101.40;;;24.59;61.95
28701;BME280;15877;52.344;16.790;2023-06-22T06:40:24;101105.41;;;24.61;61.50
28701;BME280;15877;52.344;16.790;2023-06-22T06:42:57;101104.88;;;24.63;60.84
28701;BME280;15877;52.344;16.790;2023-06-22T06:45:31;101104.17;;;24.64;60.98
28701;BME280;15877;52.344;16.790;2023-06-22T06:48:04;101106.27;;;24.66;60.80
28701;BME280;15877;52.344;16.790;2023-06-22T06:50:37;101111.56;;;24.72;60.80
28701;BME280;15877;52.344;16.790;2023-06-22T06:53:09;101109.77;;;24.82;60.79
28701;BME280;15877;52.344;16.790;2023-06-22T06:55:41;101113.16;;;24.83;60.63
28701;BME280;15877;52.344;16.790;2023-06-22T06:58:16;101107.25;;;24.82;60.72
28701;BME280;15877;52.344;16.790;2023-06-22T07:00:49;101113.52;;;24.84;59.83
28701;BME280;15877;52.344;16.790;2023-06-22T07:03:21;101108.79;;;24.85;60.13
28701;BME280;15877;52.344;16.790;2023-06-22T07:05:53;101114.28;;;24.90;60.56
28701;BME280;15877;52.344;16.790;2023-06-22T07:08:26;101111.80;;;24.98;59.08
28701;BME280;15877;52.344;16.790;2023-06-22T07:10:59;101119.92;;;25.07;58.65
28701;BME280;15877;52.344;16.790;2023-06-22T07:13:32;101120.02;;;25.13;57.76
28701;BME280;15877;52.344;16.790;2023-06-22T07:16:05;101116.55;;;25.12;57.04
28701;BME280;15877;52.344;16.790;2023-06-22T07:18:38;101115.92;;;25.07;56.40
28701;BME280;15877;52.344;16.790;2023-06-22T07:21:11;101120.35;;;25.12;56.55
28701;BME280;15877;52.344;16.790;2023-06-22T07:23:43;101118.65;;;25.03;54.78
28701;BME280;15877;52.344;16.790;2023-06-22T07:26:15;101114.17;;;25.03;54.35
28701;BME280;15877;52.344;16.790;2023-06-22T07:28:47;101107.38;;;25.11;54.54
28701;BME280;15877;52.344;16.790;2023-06-22T07:31:23;101104.29;;;25.20;54.89
28701;BME280;15877;52.344;16.790;2023-06-22T07:33:55;101099.48;;;25.23;54.98
28701;BME280;15877;52.344;16.790;2023-06-22T07:36:27;101103.47;;;25.29;55.37
28701;BME280;15877;52.344;16.790;2023-06-22T07:39:01;101106.08;;;25.35;55.16
28701;BME280;15877;52.344;16.790;2023-06-22T07:41:33;101104.12;;;25.39;54.76
28701;BME280;15877;52.344;16.790;2023-06-22T07:44:06;101091.61;;;25.41;54.51
28701;BME280;15877;52.344;16.790;2023-06-22T07:46:39;101102.83;;;25.50;54.23
28701;BME280;15877;52.344;16.790;2023-06-22T07:49:11;101108.56;;;25.54;53.18
28701;BME280;15877;52.344;16.790;2023-06-22T07:51:43;101109.75;;;25.63;53.38
28701;BME280;15877;52.344;16.790;2023-06-22T07:54:16;101106.46;;;25.67;52.85
28701;BME280;15877;52.344;16.790;2023-06-22T07:56:48;101113.29;;;25.78;52.79
28701;BME280;15877;52.344;16.790;2023-06-22T07:59:21;101114.11;;;25.78;51.47
28701;BME280;15877;52.344;16.790;2023-06-22T08:01:54;101113.77;;;25.76;51.41
28701;BME280;15877;52.344;16.790;2023-06-22T08:04:27;101113.48;;;25.82;50.42
28701;BME280;15877;52.344;16.790;2023-06-22T08:06:59;101118.66;;;25.89;49.34
28701;BME280;15877;52.344;16.790;2023-06-22T08:09:33;101114.90;;;25.95;49.20
28701;BME280;15877;52.344;16.790;2023-06-22T08:12:08;101112.98;;;26.02;49.49
28701;BME280;15877;52.344;16.790;2023-06-22T08:14:43;101097.59;;;26.03;48.96
28701;BME280;15877;52.344;16.790;2023-06-22T08:17:17;101101.84;;;26.13;48.16
28701;BME280;15877;52.344;16.790;2023-06-22T08:19:49;101105.77;;;26.15;47.08
28701;BME280;15877;52.344;16.790;2023-06-22T08:22:21;101111.13;;;26.18;46.57
28701;BME280;15877;52.344;16.790;2023-06-22T08:24:54;101110.59;;;26.22;46.61
28701;BME280;15877;52.344;16.790;2023-06-22T08:27:26;101115.30;;;26.35;47.64
28701;BME280;15877;52.344;16.790;2023-06-22T08:29:59;101113.30;;;26.44;47.17
28701;BME280;15877;52.344;16.790;2023-06-22T08:32:31;101117.30;;;26.52;46.56
28701;BME280;15877;52.344;16.790;2023-06-22T08:35:06;101115.54;;;26.58;46.92
28701;BME280;15877;52.344;16.790;2023-06-22T08:37:39;101111.77;;;26.56;45.96
28701;BME280;15877;52.344;16.790;2023-06-22T08:40:13;101108.93;;;26.56;45.52
28701;BME280;15877;52.344;16.790;2023-06-22T08:42:46;101108.08;;;26.62;45.46
28701;BME280;15877;52.344;16.790;2023-06-22T08:45:19;101105.20;;;26.68;45.14
28701;BME280;15877;52.344;16.790;2023-06-22T08:47:52;101107.70;;;26.74;45.70
28701;BME280;15877;52.344;16.790;2023-06-22T08:50:24;101098.77;;;26.85;45.72
28701;BME280;15877;52.344;16.790;2023-06-22T08:52:57;101089.57;;;26.94;45.28
28701;BME280;15877;52.344;16.790;2023-06-22T08:55:29;101079.58;;;27.02;45.76
28701;BME280;15877;52.344;16.790;2023-06-22T08:58:02;101078.13;;;27.13;45.78
28701;BME280;15877;52.344;16.790;2023-06-22T09:00:34;101076.05;;;27.19;45.21
28701;BME280;15877;52.344;16.790;2023-06-22T09:03:06;101078.10;;;27.23;45.03
28701;BME280;15877;52.344;16.790;2023-06-22T09:05:40;101078.88;;;27.38;44.25
28701;BME280;15877;52.344;16.790;2023-06-22T09:08:13;101076.64;;;27.45;44.23
28701;BME280;15877;52.344;16.790;2023-06-22T09:10:46;101068.95;;;27.55;44.20
28701;BME280;15877;52.344;16.790;2023-06-22T09:13:18;101067.73;;;27.65;44.25
28701;BME280;15877;52.344;16.790;2023-06-22T09:15:51;101069.91;;;27.72;43.30
28701;BME280;15877;52.344;16.790;2023-06-22T09:18:24;101067.48;;;27.82;43.19
28701;BME280;15877;52.344;16.790;2023-06-22T09:20:56;101068.86;;;27.93;43.86
28701;BME280;15877;52.344;16.790;2023-06-22T09:23:29;101069.66;;;28.00;41.86
28701;BME280;15877;52.344;16.790;2023-06-22T09:26:02;101066.98;;;28.06;42.23
28701;BME280;15877;52.344;16.790;2023-06-22T09:28:35;101063.61;;;28.14;40.93
28701;BME280;15877;52.344;16.790;2023-06-22T09:31:08;101057.81;;;28.22;40.59
28701;BME280;15877;52.344;16.790;2023-06-22T09:33:40;101057.26;;;28.30;40.68
28701;BME280;15877;52.344;16.790;2023-06-22T09:36:13;101059.52;;;28.32;40.15
28701;BME280;15877;52.344;16.790;2023-06-22T09:38:47;101053.61;;;28.39;39.78
28701;BME280;15877;52.344;16.790;2023-06-22T09:41:26;101051.16;;;28.49;39.57
28701;BME280;15877;52.344;16.790;2023-06-22T09:43:59;101048.03;;;28.54;39.09
28701;BME280;15877;52.344;16.790;2023-06-22T09:46:32;101044.27;;;28.65;38.40
28701;BME280;15877;52.344;16.790;2023-06-22T09:49:04;101046.16;;;28.71;37.74
28701;BME280;15877;52.344;16.790;2023-06-22T09:51:36;101044.52;;;28.79;37.79
28701;BME280;15877;52.344;16.790;2023-06-22T09:54:09;101038.61;;;28.83;38.11
28701;BME280;15877;52.344;16.790;2023-06-22T09:56:41;101038.30;;;28.92;38.13
28701;BME280;15877;52.344;16.790;2023-06-22T09:59:14;101043.18;;;28.98;37.05
28701;BME280;15877;52.344;16.790;2023-06-22T10:01:49;101049.89;;;29.07;37.73
28701;BME280;15877;52.344;16.790;2023-06-22T10:04:21;101052.61;;;29.09;37.50
28701;BME280;15877;52.344;16.790;2023-06-22T10:06:55;101048.20;;;29.23;38.21
28701;BME280;15877;52.344;16.790;2023-06-22T10:09:28;101049.91;;;29.30;36.65
28701;BME280;15877;52.344;16.790;2023-06-22T10:12:00;101046.05;;;29.34;35.78
28701;BME280;15877;52.344;16.790;2023-06-22T10:14:33;101045.06;;;29.36;35.33
28701;BME280;15877;52.344;16.790;2023-06-22T10:17:06;101039.63;;;29.48;35.92
28701;BME280;15877;52.344;16.790;2023-06-22T10:19:39;101032.06;;;29.55;34.38
28701;BME280;15877;52.344;16.790;2023-06-22T10:22:12;101034.89;;;29.58;34.91
28701;BME280;15877;52.344;16.790;2023-06-22T10:24:45;101035.17;;;29.64;34.90
28701;BME280;15877;52.344;16.790;2023-06-22T10:27:17;101037.84;;;29.75;35.09
28701;BME280;15877;52.344;16.790;2023-06-22T10:29:49;101033.09;;;29.87;35.10
28701;BME280;15877;52.344;16.790;2023-06-22T10:32:21;101032.00;;;29.93;34.60
28701;BME280;15877;52.344;16.790;2023-06-22T10:34:54;101031.45;;;30.01;34.49
28701;BME280;15877;52.344;16.790;2023-06-22T10:37:29;101037.67;;;30.12;34.98
28701;BME280;15877;52.344;16.790;2023-06-22T10:40:01;101036.73;;;30.24;34.35
28701;BME280;15877;52.344;16.790;2023-06-22T10:42:35;101037.01;;;30.27;33.95
28701;BME280;15877;52.344;16.790;2023-06-22T10:45:09;101033.67;;;30.33;34.14
28701;BME280;15877;52.344;16.790;2023-06-22T10:47:41;101040.98;;;30.40;33.71
28701;BME280;15877;52.344;16.790;2023-06-22T10:50:14;101034.06;;;30.41;33.42
28701;BME280;15877;52.344;16.790;2023-06-22T10:52:46;101031.73;;;30.48;34.24
28701;BME280;15877;52.344;16.790;2023-06-22T10:55:19;101028.52;;;30.53;34.22
28701;BME280;15877;52.344;16.790;2023-06-22T10:57:52;101026.29;;;30.58;33.68
28701;BME280;15877;52.344;16.790;2023-06-22T11:00:24;101027.23;;;30.68;33.90
28701;BME280;15877;52.344;16.790;2023-06-22T11:02:57;101019.70;;;30.65;33.09
28701;BME280;15877;52.344;16.790;2023-06-22T11:05:30;101015.80;;;30.72;34.35
28701;BME280;15877;52.344;16.790;2023-06-22T11:08:02;101008.63;;;30.73;33.85
28701;BME280;15877;52.344;16.790;2023-06-22T11:10:34;101012.59;;;30.87;34.14
28701;BME280;15877;52.344;16.790;2023-06-22T11:13:07;101013.63;;;31.02;34.30
28701;BME280;15877;52.344;16.790;2023-06-22T11:15:42;101007.92;;;31.09;33.17
28701;BME280;15877;52.344;16.790;2023-06-22T11:18:14;101005.83;;;31.25;33.54
28701;BME280;15877;52.344;16.790;2023-06-22T11:20:47;101001.69;;;31.29;33.53
28701;BME280;15877;52.344;16.790;2023-06-22T11:23:22;100998.52;;;31.19;33.53
28701;BME280;15877;52.344;16.790;2023-06-22T11:25:57;100996.29;;;31.18;33.42
28701;BME280;15877;52.344;16.790;2023-06-22T11:28:29;100995.06;;;31.24;33.68
28701;BME280;15877;52.344;16.790;2023-06-22T11:31:02;100994.41;;;31.38;34.00
28701;BME280;15877;52.344;16.790;2023-06-22T11:33:55;100990.52;;;31.47;34.14
28701;BME280;15877;52.344;16.790;2023-06-22T11:36:29;100990.59;;;31.42;33.82
28701;BME280;15877;52.344;16.790;2023-06-22T11:39:03;100992.93;;;31.45;33.06
28701;BME280;15877;52.344;16.790;2023-06-22T11:41:37;100996.82;;;31.55;33.53
28701;BME280;15877;52.344;16.790;2023-06-22T11:44:09;100988.03;;;31.63;34.34
28701;BME280;15877;52.344;16.790;2023-06-22T11:46:41;100986.91;;;31.71;34.56
28701;BME280;15877;52.344;16.790;2023-06-22T11:49:13;100986.41;;;31.78;33.50
28701;BME280;15877;52.344;16.790;2023-06-22T11:51:46;100980.21;;;31.85;33.77
28701;BME280;15877;52.344;16.790;2023-06-22T11:54:18;100982.78;;;31.86;33.79
28701;BME280;15877;52.344;16.790;2023-06-22T11:56:51;100980.11;;;31.90;33.35
28701;BME280;15877;52.344;16.790;2023-06-22T11:59:23;100980.52;;;31.96;32.87
28701;BME280;15877;52.344;16.790;2023-06-22T12:01:56;100976.09;;;32.00;32.80
28701;BME280;15877;52.344;16.790;2023-06-22T12:04:31;100970.36;;;32.02;33.65
28701;BME280;15877;52.344;16.790;2023-06-22T12:07:04;100982.20;;;32.13;33.50
28701;BME280;15877;52.344;16.790;2023-06-22T12:09:36;100980.33;;;32.10;32.93
28701;BME280;15877;52.344;16.790;2023-06-22T12:12:10;100979.51;;;32.04;32.96
28701;BME280;15877;52.344;16.790;2023-06-22T12:14:42;100977.52;;;31.95;32.99
28701;BME280;15877;52.344;16.790;2023-06-22T12:17:14;100983.95;;;32.04;33.48
28701;BME280;15877;52.344;16.790;2023-06-22T12:19:46;100976.38;;;32.08;33.43
28701;BME280;15877;52.344;16.790;2023-06-22T12:22:21;100970.95;;;32.13;33.56
28701;BME280;15877;52.344;16.790;2023-06-22T12:24:53;100972.61;;;32.18;33.38
28701;BME280;15877;52.344;16.790;2023-06-22T12:27:26;100964.81;;;32.25;33.38
28701;BME280;15877;52.344;16.790;2023-06-22T12:29:59;100960.44;;;32.30;33.99
28701;BME280;15877;52.344;16.790;2023-06-22T12:32:31;100956.84;;;32.31;32.83
28701;BME280;15877;52.344;16.790;2023-06-22T12:35:05;100951.79;;;32.41;33.09
28701;BME280;15877;52.344;16.790;2023-06-22T12:37:43;100943.91;;;32.51;32.76
28701;BME280;15877;52.344;16.790;2023-06-22T12:40:15;100937.98;;;32.53;33.18
28701;BME280;15877;52.344;16.790;2023-06-22T12:42:48;100939.64;;;32.52;33.24
28701;BME280;15877;52.344;16.790;2023-06-22T12:45:20;100935.56;;;32.45;32.72
28701;BME280;15877;52.344;16.790;2023-06-22T12:47:53;100936.71;;;32.31;33.16
28701;BME280;15877;52.344;16.790;2023-06-22T12:50:25;100934.71;;;32.08;32.60
28701;BME280;15877;52.344;16.790;2023-06-22T12:52:59;100941.29;;;31.94;32.80
28701;BME280;15877;52.344;16.790;2023-06-22T12:55:33;100939.51;;;31.82;33.03
28701;BME280;15877;52.344;16.790;2023-06-22T12:58:05;100936.54;;;31.75;32.84
28701;BME280;15877;52.344;16.790;2023-06-22T13:00:38;100934.38;;;31.68;34.01
28701;BME280;15877;52.344;16.790;2023-06-22T13:03:11;100930.59;;;31.63;33.58
28701;BME280;15877;52.344;16.790;2023-06-22T13:05:43;100930.06;;;31.58;33.59
28701;BME280;15877;52.344;16.790;2023-06-22T13:08:16;100930.50;;;31.58;33.36
28701;BME280;15877;52.344;16.790;2023-06-22T13:10:48;100927.15;;;31.49;32.69
28701;BME280;15877;52.344;16.790;2023-06-22T13:13:20;100925.60;;;31.68;33.30